createdAt,value
2018-04-30T00:00:51.621Z,73.58
2018-04-30T00:03:19.997Z,73.95
2018-04-30T00:05:48.395Z,74.16
2018-04-30T00:08:16.809Z,74.26
2018-04-30T00:10:45.211Z,74.42
2018-04-30T00:13:13.804Z,74.68
2018-04-30T00:15:42.149Z,74.81
2018-04-30T00:18:10.542Z,74.85
2018-04-30T00:20:39.890Z,74.88
2018-04-30T00:23:08.345Z,74.89
2018-04-30T00:25:36.686Z,75.02
2018-04-30T00:28:05.140Z,75.34
2018-04-30T00:30:33.631Z,75.33
2018-04-30T00:33:01.982Z,75.43
2018-04-30T00:35:30.985Z,75.56
2018-04-30T00:37:59.354Z,75.74
2018-04-30T00:40:27.708Z,75.87
2018-04-30T00:42:56.916Z,75.87
2018-04-30T00:45:25.284Z,75.89
2018-04-30T00:47:53.644Z,76.19
2018-04-30T00:50:23.300Z,76.06
2018-04-30T00:52:51.663Z,76.08
2018-04-30T00:55:20.006Z,76.04
2018-04-30T00:57:48.836Z,76.13
2018-04-30T01:00:17.208Z,76.03
2018-04-30T01:02:45.614Z,76.02
2018-04-30T01:05:14.013Z,75.92
2018-04-30T01:07:42.391Z,75.88
2018-04-30T01:10:10.814Z,75.94
2018-04-30T01:12:39.186Z,76.04
2018-04-30T01:15:07.531Z,75.98
2018-04-30T01:17:35.891Z,76.16
2018-04-30T01:20:04.528Z,76.25
2018-04-30T01:22:32.869Z,76.36
2018-04-30T01:25:01.238Z,76.54
2018-04-30T01:27:29.617Z,76.84
2018-04-30T01:29:57.982Z,77.04
2018-04-30T01:32:26.340Z,77.34
2018-04-30T01:34:54.732Z,77.57
2018-04-30T01:37:23.083Z,77.67
2018-04-30T01:39:51.441Z,77.91
2018-04-30T01:42:19.855Z,78.15
2018-04-30T01:44:48.230Z,78.62
2018-04-30T01:47:16.586Z,79.14
2018-04-30T01:49:45.841Z,79.11
2018-04-30T01:52:14.261Z,79.32
2018-04-30T01:54:42.631Z,79.27
2018-04-30T01:57:11.564Z,78.79
2018-04-30T01:59:39.930Z,78.87
2018-04-30T02:02:08.371Z,78.98
2018-04-30T02:04:36.777Z,79.13
2018-04-30T02:07:05.108Z,79.43
2018-04-30T02:09:34.477Z,79.36
2018-04-30T02:12:02.895Z,79.77
2018-04-30T02:14:31.235Z,79.95
2018-04-30T02:16:59.604Z,79.69
2018-04-30T02:19:27.948Z,79.36
2018-04-30T02:21:56.296Z,79.78
2018-04-30T02:24:24.621Z,80.09
2018-04-30T02:26:53.050Z,80.24
2018-04-30T02:29:21.366Z,80.26
2018-04-30T02:31:49.710Z,80.16
2018-04-30T02:34:18.116Z,80.11
2018-04-30T02:36:46.582Z,79.74
2018-04-30T02:39:14.980Z,79.76
2018-04-30T02:41:44.153Z,79.89
2018-04-30T02:44:12.550Z,79.61
2018-04-30T02:46:40.938Z,79.66
2018-04-30T02:49:09.345Z,79.43
2018-04-30T02:51:37.897Z,79.55
2018-04-30T02:54:06.268Z,79.37
2018-04-30T02:56:35.002Z,79.26
2018-04-30T02:59:03.410Z,79.00
2018-04-30T03:01:32.787Z,79.28
2018-04-30T03:04:02.557Z,78.68
2018-04-30T03:06:30.894Z,78.48
2018-04-30T03:08:59.230Z,78.54
2018-04-30T03:11:28.009Z,78.32
2018-04-30T03:13:56.402Z,78.07
2018-04-30T03:16:24.742Z,78.03
2018-04-30T03:18:53.118Z,77.97
2018-04-30T03:21:22.458Z,77.97
2018-04-30T03:23:50.810Z,77.75
2018-04-30T03:26:19.870Z,77.70
2018-04-30T03:28:48.251Z,77.57
2018-04-30T03:31:16.623Z,78.03
2018-04-30T03:33:45.374Z,77.99
2018-04-30T03:36:13.718Z,78.02
2018-04-30T03:38:42.137Z,77.85
2018-04-30T03:41:10.625Z,77.98
2018-04-30T03:43:39.061Z,77.93
2018-04-30T03:46:07.370Z,77.73
2018-04-30T03:48:35.866Z,77.64
2018-04-30T03:51:04.227Z,77.39
2018-04-30T03:53:32.576Z,77.29
2018-04-30T03:56:01.768Z,77.30
2018-04-30T03:58:30.167Z,77.06
2018-04-30T04:01:10.444Z,76.96
2018-04-30T04:03:50.748Z,77.04
2018-04-30T04:06:31.241Z,76.89
2018-04-30T04:09:00.404Z,76.93
2018-04-30T04:11:28.748Z,77.09
2018-04-30T04:13:57.176Z,76.90
2018-04-30T04:16:25.610Z,76.91
2018-04-30T04:18:53.967Z,77.07
2018-04-30T04:21:22.414Z,77.27
2018-04-30T04:23:51.821Z,77.20
2018-04-30T04:26:20.192Z,77.07
2018-04-30T04:28:48.698Z,77.01
2018-04-30T04:31:17.989Z,76.78
2018-04-30T04:33:46.357Z,76.75
2018-04-30T04:36:15.443Z,76.33
2018-04-30T04:38:43.881Z,75.96
2018-04-30T04:41:12.269Z,75.78
2018-04-30T04:43:40.676Z,75.96
2018-04-30T04:46:09.025Z,75.66
2018-04-30T04:48:37.380Z,75.43
2018-04-30T04:51:06.446Z,75.29
2018-04-30T04:53:34.784Z,74.97
2018-04-30T04:56:03.975Z,74.73
2018-04-30T04:58:32.326Z,74.40
2018-04-30T05:01:00.697Z,74.59
2018-04-30T05:03:29.052Z,74.25
2018-04-30T05:05:57.457Z,74.03
2018-04-30T05:08:25.906Z,74.07
2018-04-30T05:10:54.279Z,73.48
2018-04-30T05:13:23.161Z,73.46
2018-04-30T05:15:51.479Z,73.19
2018-04-30T05:18:19.938Z,73.07
2018-04-30T05:20:48.779Z,72.26
2018-04-30T05:23:17.132Z,72.24
2018-04-30T05:25:45.508Z,71.85
2018-04-30T05:28:14.741Z,71.51
2018-04-30T05:30:43.137Z,71.24
2018-04-30T05:33:11.681Z,71.29
2018-04-30T05:35:41.293Z,71.23
2018-04-30T05:38:09.775Z,71.12
2018-04-30T05:40:39.082Z,70.97
2018-04-30T05:43:08.988Z,71.08
2018-04-30T05:45:37.430Z,71.10
2018-04-30T05:48:05.856Z,71.08
2018-04-30T05:50:34.292Z,70.65
2018-04-30T05:53:02.654Z,70.36
2018-04-30T05:55:30.997Z,70.25
2018-04-30T05:57:59.823Z,70.14
2018-04-30T06:00:28.292Z,69.87
2018-04-30T06:02:56.558Z,69.87
2018-04-30T06:05:24.955Z,69.49
2018-04-30T06:07:53.355Z,69.13
2018-04-30T06:10:21.716Z,68.78
2018-04-30T06:12:50.170Z,69.00
2018-04-30T06:15:18.618Z,68.99
2018-04-30T06:17:47.003Z,69.22
2018-04-30T06:20:16.211Z,68.97
2018-04-30T06:22:44.649Z,69.07
2018-04-30T06:25:13.070Z,69.41
2018-04-30T06:27:42.202Z,69.29
2018-04-30T06:30:10.568Z,69.54
2018-04-30T06:32:38.974Z,69.24
2018-04-30T06:35:07.421Z,69.35
2018-04-30T06:37:35.755Z,69.60
2018-04-30T06:40:04.269Z,69.41
2018-04-30T06:42:33.060Z,69.61
2018-04-30T06:45:01.416Z,69.51
2018-04-30T06:47:29.780Z,69.34
2018-04-30T06:49:58.891Z,69.65
2018-04-30T06:52:27.233Z,69.86
2018-04-30T06:57:47.729Z,68.94
2018-04-30T07:00:16.161Z,67.97
2018-04-30T07:02:44.509Z,67.05
2018-04-30T07:05:13.740Z,66.16
2018-04-30T07:07:42.125Z,65.26
2018-04-30T07:10:10.636Z,65.10
2018-04-30T07:12:39.087Z,64.60
2018-04-30T07:15:07.439Z,64.35
2018-04-30T07:17:35.864Z,64.12
2018-04-30T07:20:04.940Z,64.22
2018-04-30T07:22:33.206Z,64.35
2018-04-30T07:25:01.550Z,64.26
2018-04-30T07:27:30.196Z,64.92
2018-04-30T07:29:58.673Z,66.12
2018-04-30T07:32:26.983Z,66.89
2018-04-30T07:34:55.350Z,67.61
2018-04-30T07:37:23.731Z,68.32
2018-04-30T07:39:52.088Z,68.62
2018-04-30T07:42:20.469Z,69.22
2018-04-30T07:44:48.856Z,69.25
2018-04-30T07:47:17.272Z,69.91
2018-04-30T07:49:45.851Z,69.84
2018-04-30T07:52:14.195Z,70.26
2018-04-30T07:54:42.621Z,70.20
2018-04-30T07:57:11.212Z,70.32
2018-04-30T07:59:39.569Z,71.13
2018-04-30T08:02:07.930Z,72.35
2018-04-30T08:04:36.433Z,72.89
2018-04-30T08:07:04.811Z,73.72
2018-04-30T08:09:33.168Z,73.16
2018-04-30T08:12:01.544Z,73.57
2018-04-30T08:14:29.890Z,72.30
2018-04-30T08:16:58.228Z,71.17
2018-04-30T08:19:26.951Z,72.29
2018-04-30T08:21:55.309Z,71.97
2018-04-30T08:24:23.640Z,71.73
2018-04-30T08:26:52.927Z,72.56
2018-04-30T08:29:21.250Z,72.68
2018-04-30T08:31:49.685Z,72.56
2018-04-30T08:34:18.864Z,71.12
2018-04-30T08:36:47.273Z,70.87
2018-04-30T08:39:15.627Z,70.43
2018-04-30T08:41:44.068Z,70.96
2018-04-30T08:44:13.533Z,69.92
2018-04-30T08:46:42.016Z,69.63
2018-04-30T08:49:10.410Z,69.26
2018-04-30T08:51:38.847Z,70.09
2018-04-30T08:54:07.559Z,68.71
2018-04-30T08:56:35.986Z,68.59
2018-04-30T08:59:04.519Z,68.05
2018-04-30T09:01:32.853Z,68.25
2018-04-30T09:04:01.389Z,68.01
2018-04-30T09:06:29.737Z,69.02
2018-04-30T09:08:58.095Z,68.57
2018-04-30T09:11:26.457Z,68.92
2018-04-30T09:13:54.805Z,68.92
2018-04-30T09:16:23.150Z,69.56
2018-04-30T09:18:51.538Z,68.47
2018-04-30T09:21:19.928Z,69.01
2018-04-30T09:23:49.293Z,69.35
2018-04-30T09:26:18.865Z,70.46
2018-04-30T09:28:47.228Z,70.24
2018-04-30T09:31:15.616Z,68.91
2018-04-30T09:33:44.076Z,66.42
2018-04-30T09:36:12.501Z,64.33
2018-04-30T09:38:40.890Z,63.53
2018-04-30T09:41:10.135Z,61.11
2018-04-30T09:43:38.529Z,61.40
2018-04-30T09:46:06.882Z,60.88
2018-04-30T09:48:35.329Z,62.73
2018-04-30T09:51:03.737Z,62.29
2018-04-30T09:53:32.112Z,63.85
2018-04-30T09:56:00.461Z,61.54
2018-04-30T09:58:28.789Z,60.93
2018-04-30T10:00:57.153Z,61.84
2018-04-30T10:03:26.104Z,62.64
2018-04-30T10:05:54.486Z,67.51
2018-04-30T10:08:22.863Z,69.72
2018-04-30T10:10:51.869Z,69.53
2018-04-30T10:13:20.202Z,68.17
2018-04-30T10:15:49.277Z,67.59
2018-04-30T10:18:18.218Z,68.42
2018-04-30T10:20:46.594Z,68.26
2018-04-30T10:23:14.967Z,67.15
2018-04-30T10:25:45.100Z,69.14
2018-04-30T10:28:13.499Z,70.11
2018-04-30T10:30:41.887Z,71.96
2018-04-30T10:33:10.276Z,72.09
2018-04-30T10:35:38.604Z,71.39
2018-04-30T10:38:07.015Z,72.20
2018-04-30T10:40:36.184Z,73.32
2018-04-30T10:43:04.539Z,73.52
2018-04-30T10:45:32.886Z,73.70
2018-04-30T10:48:01.475Z,73.35
2018-04-30T10:50:29.815Z,73.54
2018-04-30T10:52:58.135Z,73.30
2018-04-30T10:55:26.751Z,73.31
2018-04-30T10:57:55.094Z,73.94
2018-04-30T11:00:23.431Z,73.38
2018-04-30T11:02:51.822Z,73.89
2018-04-30T11:05:20.189Z,72.50
2018-04-30T11:07:48.554Z,72.22
2018-04-30T11:10:18.033Z,71.17
2018-04-30T11:12:46.435Z,68.85
2018-04-30T11:15:14.807Z,70.00
2018-04-30T11:17:43.455Z,70.05
2018-04-30T11:20:11.779Z,68.89
2018-04-30T11:22:40.341Z,67.86
2018-04-30T11:25:09.639Z,65.95
2018-04-30T11:27:38.027Z,65.89
2018-04-30T11:30:06.414Z,65.66
2018-04-30T11:32:34.878Z,66.29
2018-04-30T11:35:03.221Z,67.00
2018-04-30T11:37:31.553Z,67.81
2018-04-30T11:40:00.037Z,68.00
2018-04-30T11:42:28.361Z,68.60
2018-04-30T11:44:56.745Z,69.43
2018-04-30T11:47:25.485Z,70.30
2018-04-30T11:49:53.874Z,70.99
2018-04-30T11:52:22.205Z,70.64
2018-04-30T11:54:50.723Z,70.03
2018-04-30T11:57:19.195Z,70.46
2018-04-30T11:59:47.570Z,71.60
2018-04-30T12:02:16.050Z,72.58
2018-04-30T12:04:44.408Z,72.00
2018-04-30T12:07:12.874Z,72.24
2018-04-30T12:09:41.448Z,72.60
2018-04-30T12:12:09.841Z,72.67
2018-04-30T12:14:38.164Z,72.28
2018-04-30T12:17:06.636Z,72.28
2018-04-30T12:19:35.095Z,72.28
2018-04-30T12:22:03.509Z,72.09
2018-04-30T12:24:33.372Z,72.39
2018-04-30T12:27:01.747Z,72.66
2018-04-30T12:29:30.106Z,72.65
2018-04-30T12:31:58.473Z,72.61
2018-04-30T12:34:26.811Z,73.15
2018-04-30T12:36:55.132Z,73.01
2018-04-30T12:39:23.672Z,72.49
2018-04-30T12:41:52.064Z,72.03
2018-04-30T12:44:20.420Z,71.52
2018-04-30T12:46:48.933Z,72.49
2018-04-30T12:49:17.351Z,73.04
2018-04-30T12:51:45.791Z,75.05
2018-04-30T12:54:14.751Z,76.24
2018-04-30T12:56:43.162Z,77.96
2018-04-30T12:59:11.563Z,78.70
2018-04-30T13:01:40.742Z,78.89
2018-04-30T13:04:09.151Z,79.09
2018-04-30T13:06:37.527Z,79.11
2018-04-30T13:09:05.898Z,78.98
2018-04-30T13:11:34.288Z,79.02
2018-04-30T13:14:02.649Z,78.37
2018-04-30T13:16:31.006Z,78.15
2018-04-30T13:18:59.389Z,77.64
2018-04-30T13:21:27.705Z,77.83
2018-04-30T13:23:56.094Z,77.76
2018-04-30T13:26:24.525Z,77.62
2018-04-30T13:28:52.953Z,77.08
2018-04-30T13:31:22.149Z,77.13
2018-04-30T13:33:50.559Z,77.07
2018-04-30T13:36:19.043Z,77.31
2018-04-30T13:38:47.955Z,77.14
2018-04-30T13:41:16.317Z,77.05
2018-04-30T13:43:44.755Z,76.71
2018-04-30T13:46:13.242Z,76.59
2018-04-30T13:48:41.626Z,76.27
2018-04-30T13:51:10.033Z,76.26
2018-04-30T13:53:39.363Z,75.64
2018-04-30T13:56:07.741Z,75.53
2018-04-30T13:58:36.121Z,74.82
2018-04-30T14:01:04.510Z,74.03
2018-04-30T14:03:32.886Z,73.20
2018-04-30T14:06:01.258Z,72.58
2018-04-30T14:08:29.637Z,72.75
2018-04-30T14:10:58.009Z,72.69
2018-04-30T14:13:26.391Z,72.36
2018-04-30T14:15:55.034Z,72.19
2018-04-30T14:18:23.386Z,72.33
2018-04-30T14:20:51.714Z,72.82
2018-04-30T14:23:21.693Z,74.61
2018-04-30T14:25:50.155Z,76.24
2018-04-30T14:28:18.513Z,77.51
2018-04-30T14:30:46.971Z,78.41
2018-04-30T14:33:15.415Z,78.26
2018-04-30T14:35:43.854Z,78.51
2018-04-30T14:38:12.274Z,78.54
2018-04-30T14:40:40.655Z,77.92
2018-04-30T14:43:09.136Z,78.66
2018-04-30T14:45:38.126Z,78.63
2018-04-30T14:48:06.511Z,79.03
2018-04-30T14:50:34.845Z,79.42
2018-04-30T14:53:03.249Z,79.68
2018-04-30T14:55:31.619Z,80.02
2018-04-30T14:57:59.938Z,80.12
2018-04-30T15:00:29.209Z,80.40
2018-04-30T15:02:57.953Z,80.56
2018-04-30T15:05:26.405Z,79.53
2018-04-30T15:07:55.555Z,78.43
2018-04-30T15:10:24.002Z,78.67
2018-04-30T15:12:52.420Z,79.01
2018-04-30T15:15:20.909Z,78.22
2018-04-30T15:17:49.332Z,78.24
2018-04-30T15:20:17.705Z,77.42
2018-04-30T15:22:47.152Z,76.70
2018-04-30T15:25:15.530Z,77.06
2018-04-30T15:27:43.978Z,76.92
2018-04-30T15:30:14.266Z,76.46
2018-04-30T15:32:44.318Z,76.31
2018-04-30T15:35:13.919Z,75.75
2018-04-30T15:37:43.396Z,74.97
2018-04-30T15:40:12.074Z,75.25
2018-04-30T15:42:42.100Z,75.06
2018-04-30T15:45:12.930Z,75.06
2018-04-30T15:47:42.952Z,74.61
2018-04-30T15:50:15.338Z,72.86
2018-04-30T15:52:44.303Z,72.97
2018-04-30T15:55:12.715Z,72.59
2018-04-30T15:57:41.104Z,72.23
2018-04-30T16:00:09.591Z,71.29
2018-04-30T16:02:37.970Z,70.53
2018-04-30T16:05:08.273Z,68.46
2018-04-30T16:07:36.621Z,68.45
2018-04-30T16:10:04.938Z,68.39
2018-04-30T16:12:33.511Z,67.86
2018-04-30T16:15:01.963Z,68.46
2018-04-30T16:17:30.329Z,69.02
2018-04-30T16:19:58.720Z,68.60
2018-04-30T16:22:27.076Z,68.18
2018-04-30T16:24:55.499Z,68.24
2018-04-30T16:27:24.495Z,68.42
2018-04-30T16:29:52.809Z,67.91
2018-04-30T16:32:21.164Z,67.82
2018-04-30T16:34:49.637Z,67.78
2018-04-30T16:37:18.327Z,67.22
2018-04-30T16:39:46.780Z,67.25
2018-04-30T16:42:16.754Z,67.43
2018-04-30T16:44:46.234Z,67.61
2018-04-30T16:47:14.696Z,67.31
2018-04-30T16:49:43.097Z,66.75
2018-04-30T16:52:11.632Z,66.67
2018-04-30T16:54:40.048Z,66.62
2018-04-30T16:57:08.616Z,66.39
2018-04-30T16:59:36.976Z,66.55
2018-04-30T17:02:05.362Z,66.40
2018-04-30T17:04:34.833Z,66.49
2018-04-30T17:07:03.266Z,66.51
2018-04-30T17:09:31.589Z,65.98
2018-04-30T17:12:00.038Z,66.37
2018-04-30T17:14:28.382Z,66.29
2018-04-30T17:16:56.749Z,66.39
2018-04-30T17:19:25.651Z,66.34
2018-04-30T17:21:54.036Z,66.23
2018-04-30T17:24:22.566Z,66.05
2018-04-30T17:26:50.956Z,66.42
2018-04-30T17:29:19.671Z,66.62
2018-04-30T17:31:48.279Z,66.80
2018-04-30T17:34:17.144Z,66.90
2018-04-30T17:36:45.802Z,67.03
2018-04-30T17:39:14.296Z,67.08
2018-04-30T17:41:42.796Z,67.18
2018-04-30T17:44:12.308Z,67.30
2018-04-30T17:46:41.357Z,67.72
2018-04-30T17:49:10.760Z,67.54
2018-04-30T17:51:40.035Z,67.61
2018-04-30T17:54:09.025Z,67.43
2018-04-30T17:56:37.468Z,67.52
2018-04-30T17:59:05.930Z,67.54
2018-04-30T18:01:35.637Z,67.76
2018-04-30T18:04:04.540Z,67.93
2018-04-30T18:06:32.886Z,67.72
2018-04-30T18:09:01.213Z,67.50
2018-04-30T18:11:29.802Z,66.94
2018-04-30T18:13:58.247Z,66.77
2018-04-30T18:16:26.676Z,66.42
2018-04-30T18:18:55.041Z,66.67
2018-04-30T18:21:23.515Z,66.77
2018-04-30T18:23:52.019Z,66.89
2018-04-30T18:26:20.633Z,66.76
2018-04-30T18:28:49.064Z,66.76
2018-04-30T18:31:17.610Z,66.74
2018-04-30T18:33:49.060Z,66.60
2018-04-30T18:36:17.749Z,66.65
2018-04-30T18:38:46.453Z,66.50
2018-04-30T18:41:15.439Z,66.41
2018-04-30T18:43:44.257Z,66.26
2018-04-30T18:46:13.491Z,66.04
2018-04-30T18:48:43.020Z,65.83
2018-04-30T18:51:11.541Z,65.52
2018-04-30T18:53:40.135Z,65.12
2018-04-30T18:56:09.874Z,64.88
2018-04-30T18:58:38.532Z,64.51
2018-04-30T19:01:07.116Z,63.85
2018-04-30T19:03:36.002Z,62.64
2018-04-30T19:06:04.410Z,60.30
2018-04-30T19:08:32.749Z,60.24
2018-04-30T19:11:03.533Z,60.41
2018-04-30T19:13:32.208Z,59.98
2018-04-30T19:16:00.680Z,58.91
2018-04-30T19:18:29.677Z,57.91
2018-04-30T19:20:58.009Z,57.61
2018-04-30T19:23:26.432Z,57.18
2018-04-30T19:25:54.868Z,56.92
2018-04-30T19:28:26.677Z,56.52
2018-04-30T19:30:55.477Z,56.59
2018-04-30T19:33:23.829Z,56.49
2018-04-30T19:35:52.415Z,56.19
2018-04-30T19:38:22.837Z,56.60
2018-04-30T19:40:53.943Z,56.58
2018-04-30T19:43:22.426Z,56.60
2018-04-30T19:45:50.990Z,56.71
2018-04-30T19:48:19.545Z,57.23
2018-04-30T19:50:48.649Z,57.31
2018-04-30T19:53:17.729Z,57.45
2018-04-30T19:55:46.208Z,57.84
2018-04-30T19:58:14.720Z,58.17
2018-04-30T20:00:44.092Z,58.16
2018-04-30T20:03:12.573Z,58.12
2018-04-30T20:05:41.728Z,57.74
2018-04-30T20:08:10.209Z,57.42
2018-04-30T20:10:38.683Z,57.26
2018-04-30T20:13:07.062Z,57.27
2018-04-30T20:15:35.412Z,57.08
2018-04-30T20:18:03.764Z,57.28
2018-04-30T20:20:32.210Z,57.40
2018-04-30T20:23:00.640Z,57.43
2018-04-30T20:25:29.067Z,57.66
2018-04-30T20:27:57.516Z,57.86
2018-04-30T20:30:25.870Z,58.10
2018-04-30T20:32:54.220Z,58.40
2018-04-30T20:35:22.617Z,58.78
2018-04-30T20:37:51.475Z,59.25
2018-04-30T20:40:19.812Z,59.72
2018-04-30T20:42:48.287Z,60.01
2018-04-30T20:45:17.059Z,60.44
2018-04-30T20:47:45.478Z,60.45
2018-04-30T20:50:14.141Z,60.61
2018-04-30T20:52:42.663Z,61.03
2018-04-30T20:55:11.145Z,61.14
2018-04-30T20:57:39.693Z,61.36
2018-04-30T21:00:09.674Z,61.53
2018-04-30T21:02:37.997Z,61.81
2018-04-30T21:05:06.432Z,61.86
2018-04-30T21:07:35.609Z,62.34
2018-04-30T21:10:03.967Z,62.29
2018-04-30T21:12:32.288Z,62.55
2018-04-30T21:15:00.686Z,62.51
2018-04-30T21:17:29.170Z,62.24
2018-04-30T21:19:57.401Z,62.34
2018-04-30T21:22:26.592Z,62.19
2018-04-30T21:24:54.957Z,61.60
2018-04-30T21:27:23.356Z,61.40
2018-04-30T21:29:51.855Z,61.05
2018-04-30T21:32:20.261Z,60.80
2018-04-30T21:34:48.623Z,60.20
2018-04-30T21:37:17.282Z,60.30
2018-04-30T21:39:45.824Z,60.04
2018-04-30T21:42:14.142Z,60.13
2018-04-30T21:44:43.430Z,60.16
2018-04-30T21:47:11.886Z,60.11
2018-04-30T21:49:40.560Z,60.43
2018-04-30T21:52:10.996Z,60.37
2018-04-30T21:54:39.659Z,60.38
2018-04-30T21:57:08.193Z,60.39
2018-04-30T21:59:36.633Z,60.34
2018-04-30T22:02:04.949Z,60.54
2018-04-30T22:04:36.586Z,60.65
2018-04-30T22:07:05.019Z,60.70
2018-04-30T22:09:33.427Z,60.62
2018-04-30T22:12:01.935Z,60.64
2018-04-30T22:14:30.259Z,60.64
2018-04-30T22:16:58.673Z,60.73
2018-04-30T22:19:26.999Z,60.77
2018-04-30T22:21:55.354Z,60.92
2018-04-30T22:24:23.697Z,61.07
2018-04-30T22:26:52.039Z,61.05
2018-04-30T22:29:20.465Z,61.19
2018-04-30T22:31:50.109Z,61.33
2018-04-30T22:34:18.542Z,61.41
2018-04-30T22:36:47.049Z,61.86
2018-04-30T22:39:15.347Z,61.86
2018-04-30T22:41:43.709Z,62.17
2018-04-30T22:44:14.563Z,62.73
2018-04-30T22:46:42.932Z,62.96
2018-04-30T22:49:11.579Z,63.43
2018-04-30T22:51:40.151Z,63.84
2018-04-30T22:54:08.549Z,64.31
2018-04-30T22:56:36.897Z,64.29
2018-04-30T22:59:05.237Z,64.62
2018-04-30T23:01:33.749Z,64.78
2018-04-30T23:04:02.557Z,64.90
2018-04-30T23:06:31.673Z,65.14
2018-04-30T23:08:59.995Z,64.83
2018-04-30T23:11:28.380Z,64.94
2018-04-30T23:13:56.737Z,65.11
2018-04-30T23:16:25.143Z,65.46
2018-04-30T23:18:53.446Z,65.57
2018-04-30T23:21:22.616Z,65.52
2018-04-30T23:23:50.996Z,65.74
2018-04-30T23:26:19.338Z,65.73
2018-04-30T23:28:47.851Z,65.52
2018-04-30T23:31:16.258Z,65.58
2018-04-30T23:33:44.645Z,65.16
2018-04-30T23:36:13.275Z,64.52
2018-04-30T23:38:41.977Z,63.99
2018-04-30T23:41:10.334Z,62.95
2018-04-30T23:43:39.140Z,62.20
2018-04-30T23:46:07.496Z,62.12
2018-04-30T23:48:35.828Z,61.70
2018-04-30T23:51:05.237Z,61.06
2018-04-30T23:53:33.582Z,60.56
2018-04-30T23:56:01.936Z,60.31
2018-04-30T23:58:30.332Z,59.61
